createdAt,value
2019-03-31T00:01:44.594Z,80.96
2019-03-31T00:04:50.227Z,81.20
2019-03-31T00:07:55.917Z,81.95
2019-03-31T00:11:01.558Z,81.96
2019-03-31T00:14:07.207Z,82.50
2019-03-31T00:17:13.839Z,82.69
2019-03-31T00:20:19.498Z,82.25
2019-03-31T00:23:25.230Z,82.01
2019-03-31T00:26:30.895Z,80.75
2019-03-31T00:29:36.600Z,80.45
2019-03-31T00:32:42.288Z,80.66
2019-03-31T00:35:47.937Z,81.28
2019-03-31T00:38:53.634Z,82.25
2019-03-31T00:41:59.294Z,83.27
2019-03-31T00:45:05.465Z,83.58
2019-03-31T00:48:11.145Z,83.69
2019-03-31T00:51:16.802Z,83.85
2019-03-31T00:54:22.486Z,84.13
2019-03-31T00:57:28.293Z,84.42
2019-03-31T01:01:05.103Z,84.01
2019-03-31T01:04:16.585Z,83.96
2019-03-31T01:07:24.376Z,83.03
2019-03-31T01:10:30.878Z,82.71
2019-03-31T01:13:36.646Z,83.14
2019-03-31T01:16:42.466Z,83.35
2019-03-31T01:19:48.221Z,83.99
2019-03-31T01:22:53.931Z,84.73
2019-03-31T01:26:00.583Z,85.60
2019-03-31T01:29:06.604Z,85.57
2019-03-31T01:32:12.473Z,85.84
2019-03-31T01:35:18.429Z,86.21
2019-03-31T01:38:24.182Z,86.77
2019-03-31T01:41:29.862Z,86.91
2019-03-31T01:44:35.597Z,87.19
2019-03-31T01:47:41.233Z,87.49
2019-03-31T01:50:46.926Z,87.69
2019-03-31T01:53:52.603Z,87.87
2019-03-31T01:56:58.287Z,88.04
2019-03-31T02:00:07.839Z,88.05
2019-03-31T02:03:13.574Z,87.76
2019-03-31T02:06:19.321Z,88.02
2019-03-31T02:09:24.992Z,88.29
2019-03-31T02:12:30.714Z,87.95
2019-03-31T02:15:36.406Z,88.54
2019-03-31T02:18:42.083Z,89.07
2019-03-31T02:21:47.794Z,88.79
2019-03-31T02:24:53.548Z,88.91
2019-03-31T02:27:59.547Z,88.99
2019-03-31T02:31:05.202Z,89.03
2019-03-31T02:34:10.906Z,89.54
2019-03-31T02:37:16.548Z,90.19
2019-03-31T02:40:22.186Z,89.87
2019-03-31T02:43:27.899Z,89.04
2019-03-31T02:46:33.559Z,89.00
2019-03-31T02:49:39.170Z,89.00
2019-03-31T02:52:44.790Z,89.49
2019-03-31T02:55:51.575Z,89.63
2019-03-31T02:59:00.618Z,89.02
2019-03-31T03:02:06.373Z,88.44
2019-03-31T03:05:19.663Z,88.17
2019-03-31T03:08:22.526Z,88.44
2019-03-31T03:11:30.104Z,88.41
2019-03-31T03:14:38.230Z,89.43
2019-03-31T03:17:43.904Z,90.52
2019-03-31T03:20:49.578Z,91.19
2019-03-31T03:23:55.306Z,91.49
2019-03-31T03:27:00.973Z,91.68
2019-03-31T03:30:07.030Z,92.08
2019-03-31T03:33:16.276Z,92.20
2019-03-31T03:36:20.032Z,92.26
2019-03-31T03:39:25.701Z,92.26
2019-03-31T03:42:31.440Z,92.32
2019-03-31T03:45:37.102Z,92.19
2019-03-31T03:48:42.770Z,92.08
2019-03-31T03:51:48.590Z,91.93
2019-03-31T03:54:54.208Z,92.39
2019-03-31T03:57:59.928Z,92.10
2019-03-31T04:01:13.308Z,91.53
2019-03-31T04:04:19.070Z,91.77
2019-03-31T04:07:24.784Z,92.55
2019-03-31T04:11:20.660Z,92.75
2019-03-31T04:14:23.475Z,92.99
2019-03-31T04:17:29.215Z,93.57
2019-03-31T04:20:39.143Z,94.03
2019-03-31T04:23:42.305Z,94.32
2019-03-31T04:26:47.999Z,94.10
2019-03-31T04:29:53.681Z,92.81
2019-03-31T04:32:59.350Z,92.27
2019-03-31T04:36:05.058Z,92.53
2019-03-31T04:39:10.773Z,92.81
2019-03-31T04:42:16.521Z,93.61
2019-03-31T04:45:22.190Z,93.40
2019-03-31T04:48:27.831Z,92.85
2019-03-31T04:51:33.471Z,93.04
2019-03-31T04:54:39.140Z,92.90
2019-03-31T04:57:44.774Z,92.90
2019-03-31T05:00:50.525Z,92.72
2019-03-31T05:04:04.406Z,92.00
2019-03-31T05:07:03.567Z,92.05
2019-03-31T05:10:09.376Z,92.01
2019-03-31T05:13:15.100Z,91.77
2019-03-31T05:16:20.806Z,91.48
2019-03-31T05:19:26.447Z,91.55
2019-03-31T05:22:32.144Z,91.00
2019-03-31T05:25:37.746Z,90.55
2019-03-31T05:28:44.299Z,89.27
2019-03-31T05:31:50.062Z,87.84
2019-03-31T05:34:55.730Z,86.68
2019-03-31T05:38:01.401Z,86.02
2019-03-31T05:41:07.072Z,84.68
2019-03-31T05:44:12.797Z,84.46
2019-03-31T05:47:18.486Z,84.05
2019-03-31T05:50:24.164Z,84.43
2019-03-31T05:53:29.794Z,85.80
2019-03-31T05:56:35.533Z,85.00
2019-03-31T05:59:41.300Z,84.38
2019-03-31T06:02:46.942Z,83.82
2019-03-31T06:05:52.681Z,84.17
2019-03-31T06:08:58.321Z,83.35
2019-03-31T06:12:04.109Z,83.19
2019-03-31T06:15:09.896Z,82.59
2019-03-31T06:18:15.577Z,81.76
2019-03-31T06:21:21.229Z,82.12
2019-03-31T06:24:26.898Z,81.62
2019-03-31T06:27:33.558Z,81.18
2019-03-31T06:30:39.259Z,79.28
2019-03-31T06:33:44.908Z,76.51
2019-03-31T06:36:50.621Z,76.18
2019-03-31T06:39:56.323Z,74.60
2019-03-31T06:43:02.028Z,73.61
2019-03-31T06:46:07.714Z,72.30
2019-03-31T06:49:13.399Z,70.91
2019-03-31T06:52:19.125Z,71.74
2019-03-31T06:55:24.785Z,70.60
2019-03-31T06:58:30.446Z,70.18
2019-03-31T07:01:36.193Z,70.99
2019-03-31T07:04:41.938Z,70.54
2019-03-31T07:07:47.657Z,71.84
2019-03-31T07:10:53.901Z,72.59
2019-03-31T07:13:59.678Z,73.85
2019-03-31T07:17:05.351Z,71.94
2019-03-31T07:20:12.349Z,70.22
2019-03-31T07:23:18.029Z,70.31
2019-03-31T07:26:23.724Z,70.21
2019-03-31T07:29:29.414Z,72.12
2019-03-31T07:32:35.108Z,71.29
2019-03-31T07:35:40.809Z,70.17
2019-03-31T07:38:46.455Z,66.69
2019-03-31T07:41:52.481Z,65.69
2019-03-31T07:44:58.223Z,65.43
2019-03-31T07:48:03.940Z,65.21
2019-03-31T07:51:09.595Z,64.48
2019-03-31T07:54:16.275Z,65.36
2019-03-31T07:57:21.960Z,65.92
2019-03-31T08:00:27.604Z,64.83
2019-03-31T08:03:33.291Z,63.27
2019-03-31T08:06:38.976Z,62.94
2019-03-31T08:09:44.664Z,62.74
2019-03-31T08:12:50.378Z,62.27
2019-03-31T08:15:56.065Z,61.91
2019-03-31T08:19:01.804Z,61.54
2019-03-31T08:22:07.509Z,60.61
2019-03-31T08:25:14.065Z,59.54
2019-03-31T08:28:19.697Z,57.80
2019-03-31T08:31:25.454Z,56.68
2019-03-31T08:34:31.096Z,56.53
2019-03-31T08:37:36.914Z,56.22
2019-03-31T08:40:42.620Z,54.62
2019-03-31T08:43:48.372Z,53.50
2019-03-31T08:46:54.009Z,53.69
2019-03-31T08:50:02.178Z,53.46
2019-03-31T08:53:07.099Z,51.94
2019-03-31T08:56:12.775Z,50.47
2019-03-31T08:59:18.414Z,49.78
2019-03-31T09:02:26.431Z,50.85
2019-03-31T09:05:32.182Z,49.08
2019-03-31T09:08:37.852Z,49.83
2019-03-31T09:11:43.598Z,49.08
2019-03-31T09:14:49.256Z,47.45
2019-03-31T09:17:54.985Z,47.71
2019-03-31T09:21:00.746Z,46.25
2019-03-31T09:24:06.580Z,47.47
2019-03-31T09:27:12.296Z,47.01
2019-03-31T09:30:18.627Z,46.08
2019-03-31T09:33:24.285Z,45.31
2019-03-31T09:36:29.964Z,44.54
2019-03-31T09:39:35.678Z,43.70
2019-03-31T09:42:41.548Z,42.20
2019-03-31T09:45:47.268Z,42.06
2019-03-31T09:48:52.958Z,41.44
2019-03-31T09:51:58.641Z,42.25
2019-03-31T09:55:04.458Z,42.73
2019-03-31T09:58:10.118Z,43.52
2019-03-31T10:01:15.840Z,41.62
2019-03-31T10:04:21.566Z,42.41
2019-03-31T10:07:27.786Z,40.54
2019-03-31T10:10:33.952Z,40.86
2019-03-31T10:13:39.652Z,40.34
2019-03-31T10:16:45.363Z,40.15
2019-03-31T10:19:51.057Z,38.93
2019-03-31T10:22:56.778Z,38.37
2019-03-31T10:26:02.454Z,37.45
2019-03-31T10:29:08.123Z,34.25
2019-03-31T10:32:13.856Z,34.25
2019-03-31T10:35:19.546Z,35.73
2019-03-31T10:38:25.254Z,36.27
2019-03-31T10:41:31.171Z,36.76
2019-03-31T10:44:37.025Z,35.14
2019-03-31T10:47:42.825Z,34.54
2019-03-31T10:50:48.537Z,33.00
2019-03-31T10:53:54.210Z,34.19
2019-03-31T10:56:59.901Z,34.31
2019-03-31T11:00:06.613Z,35.29
2019-03-31T11:03:12.286Z,35.30
2019-03-31T11:06:18.090Z,35.43
2019-03-31T11:09:23.808Z,35.42
2019-03-31T11:12:29.603Z,36.20
2019-03-31T11:15:35.276Z,37.08
2019-03-31T11:18:40.964Z,35.93
2019-03-31T11:22:08.311Z,37.28
2019-03-31T11:25:21.099Z,36.13
2019-03-31T11:28:21.533Z,36.93
2019-03-31T11:31:27.267Z,36.91
2019-03-31T11:34:32.948Z,38.83
2019-03-31T11:37:38.677Z,38.10
2019-03-31T11:40:44.378Z,34.30
2019-03-31T11:43:51.180Z,34.47
2019-03-31T11:46:56.879Z,34.34
2019-03-31T11:50:02.594Z,34.34
2019-03-31T11:53:08.258Z,32.97
2019-03-31T11:56:14.002Z,33.22
2019-03-31T11:59:21.044Z,33.22
2019-03-31T12:02:27.829Z,32.64
2019-03-31T12:05:33.759Z,31.77
2019-03-31T12:08:39.468Z,32.69
2019-03-31T12:11:45.796Z,32.74
2019-03-31T12:15:00.391Z,32.74
2019-03-31T12:17:59.133Z,33.24
2019-03-31T12:21:04.786Z,33.07
2019-03-31T12:24:11.480Z,33.63
2019-03-31T12:27:17.188Z,31.75
2019-03-31T12:30:28.819Z,32.00
2019-03-31T12:33:34.530Z,32.30
2019-03-31T12:36:40.234Z,32.21
2019-03-31T12:39:46.030Z,30.76
2019-03-31T12:42:51.793Z,31.95
2019-03-31T12:45:57.548Z,31.58
2019-03-31T12:49:03.292Z,31.29
2019-03-31T12:52:08.958Z,32.50
2019-03-31T12:55:14.624Z,30.09
2019-03-31T12:58:21.409Z,32.51
2019-03-31T13:01:27.101Z,31.72
2019-03-31T13:04:32.745Z,30.12
2019-03-31T13:07:38.436Z,30.53
2019-03-31T13:10:44.110Z,31.04
2019-03-31T13:13:49.814Z,29.21
2019-03-31T13:16:55.528Z,28.72
2019-03-31T13:20:01.191Z,29.30
2019-03-31T13:23:06.979Z,28.92
2019-03-31T13:26:12.750Z,28.74
2019-03-31T13:29:18.422Z,29.38
2019-03-31T13:32:24.110Z,28.56
2019-03-31T13:35:29.805Z,28.03
2019-03-31T13:38:35.485Z,28.04
2019-03-31T13:41:41.153Z,27.81
2019-03-31T13:44:46.870Z,28.49
2019-03-31T13:47:52.530Z,30.97
2019-03-31T13:50:58.192Z,31.07
2019-03-31T13:54:03.942Z,30.71
2019-03-31T13:57:10.369Z,30.97
2019-03-31T14:00:26.536Z,31.05
2019-03-31T14:03:30.555Z,31.79
2019-03-31T14:06:36.338Z,32.13
2019-03-31T14:09:42.028Z,31.06
2019-03-31T14:12:47.767Z,31.48
2019-03-31T14:15:53.473Z,32.26
2019-03-31T14:18:59.249Z,32.81
2019-03-31T14:22:04.972Z,33.37
2019-03-31T14:25:10.623Z,33.13
2019-03-31T14:28:16.304Z,32.88
2019-03-31T14:31:22.052Z,33.19
2019-03-31T14:34:27.826Z,33.86
2019-03-31T14:37:33.563Z,32.84
2019-03-31T14:40:39.247Z,32.84
2019-03-31T14:43:44.960Z,32.58
2019-03-31T14:46:50.692Z,32.29
2019-03-31T14:49:56.340Z,32.29
2019-03-31T14:53:02.044Z,32.43
2019-03-31T14:56:07.770Z,33.35
2019-03-31T14:59:13.516Z,34.28
2019-03-31T15:02:19.214Z,35.19
2019-03-31T15:05:24.908Z,35.18
2019-03-31T15:08:30.745Z,34.16
2019-03-31T15:11:36.443Z,35.24
2019-03-31T15:14:42.147Z,34.10
2019-03-31T15:17:47.960Z,34.59
2019-03-31T15:20:54.594Z,33.56
2019-03-31T15:24:00.308Z,33.13
2019-03-31T15:27:06.015Z,33.13
2019-03-31T15:30:11.932Z,34.09
2019-03-31T15:33:17.654Z,32.80
2019-03-31T15:36:23.334Z,34.04
2019-03-31T15:39:29.129Z,33.99
2019-03-31T15:42:34.907Z,34.79
2019-03-31T15:45:41.700Z,35.84
2019-03-31T15:48:47.349Z,35.93
2019-03-31T15:51:53.047Z,36.03
2019-03-31T15:54:58.770Z,36.19
2019-03-31T15:58:05.445Z,36.23
2019-03-31T16:01:12.242Z,36.87
2019-03-31T16:04:18.054Z,37.73
2019-03-31T16:07:23.775Z,39.20
2019-03-31T16:10:29.048Z,39.65
2019-03-31T16:13:34.252Z,40.76
2019-03-31T16:16:39.373Z,41.57
2019-03-31T16:19:44.592Z,41.97
2019-03-31T16:22:49.710Z,42.46
2019-03-31T16:25:57.119Z,42.61
2019-03-31T16:29:03.362Z,42.60
2019-03-31T16:32:08.611Z,43.33
2019-03-31T16:35:13.941Z,43.17
2019-03-31T16:38:19.038Z,43.62
2019-03-31T16:41:24.186Z,43.62
2019-03-31T16:44:29.414Z,43.90
2019-03-31T16:47:34.545Z,43.91
2019-03-31T16:50:39.715Z,44.47
2019-03-31T16:53:45.018Z,44.72
2019-03-31T16:56:50.301Z,45.38
2019-03-31T16:59:55.440Z,45.79
2019-03-31T17:03:00.569Z,46.46
2019-03-31T17:06:05.711Z,46.95
2019-03-31T17:09:10.934Z,47.67
2019-03-31T17:12:16.200Z,47.94
2019-03-31T17:15:21.422Z,47.26
2019-03-31T17:18:26.798Z,47.55
2019-03-31T17:21:32.099Z,47.83
2019-03-31T17:24:37.224Z,49.73
2019-03-31T17:27:42.367Z,50.29
2019-03-31T17:30:47.751Z,51.01
2019-03-31T17:33:52.955Z,51.69
2019-03-31T17:36:58.253Z,52.47
2019-03-31T17:40:06.397Z,52.90
2019-03-31T17:43:10.639Z,52.82
2019-03-31T17:46:16.007Z,53.77
2019-03-31T17:49:21.138Z,53.98
2019-03-31T17:52:26.343Z,54.91
2019-03-31T17:55:31.512Z,54.59
2019-03-31T17:58:36.701Z,55.40
2019-03-31T18:01:41.890Z,55.82
2019-03-31T18:04:47.034Z,56.83
2019-03-31T18:07:52.239Z,57.28
2019-03-31T18:10:57.404Z,57.87
2019-03-31T18:14:02.575Z,58.70
2019-03-31T18:17:07.781Z,57.41
2019-03-31T18:20:12.879Z,57.86
2019-03-31T18:23:18.098Z,58.27
2019-03-31T18:26:23.377Z,57.97
2019-03-31T18:29:28.632Z,57.40
2019-03-31T18:32:33.790Z,57.58
2019-03-31T18:35:38.936Z,57.83
2019-03-31T18:38:44.127Z,57.92
2019-03-31T18:41:49.580Z,58.61
2019-03-31T18:44:54.849Z,58.81
2019-03-31T18:48:01.270Z,59.27
2019-03-31T18:51:06.644Z,59.30
2019-03-31T18:54:25.782Z,59.84
2019-03-31T18:57:38.799Z,60.03
2019-03-31T19:01:03.099Z,59.48
2019-03-31T19:04:27.060Z,59.77
2019-03-31T19:07:42.611Z,60.51
2019-03-31T19:11:05.030Z,59.77
2019-03-31T19:14:29.244Z,60.01
2019-03-31T19:17:53.476Z,60.62
2019-03-31T19:21:23.652Z,61.44
2019-03-31T19:24:37.631Z,62.28
2019-03-31T19:27:53.311Z,62.75
2019-03-31T19:31:07.211Z,61.95
2019-03-31T19:34:43.554Z,62.01
2019-03-31T19:38:06.575Z,63.16
2019-03-31T19:41:49.048Z,64.38
2019-03-31T19:45:13.280Z,64.10
2019-03-31T19:48:34.580Z,63.24
2019-03-31T19:51:48.316Z,64.22
2019-03-31T19:55:15.379Z,65.40
2019-03-31T19:58:42.022Z,65.77
2019-03-31T20:02:11.943Z,65.43
2019-03-31T20:05:39.349Z,64.62
2019-03-31T20:09:02.390Z,65.56
2019-03-31T20:12:27.051Z,65.18
2019-03-31T20:15:50.286Z,64.94
2019-03-31T20:19:20.658Z,65.36
2019-03-31T20:22:39.304Z,65.98
2019-03-31T20:25:52.127Z,66.72
2019-03-31T20:29:05.888Z,66.82
2019-03-31T20:32:42.113Z,67.15
2019-03-31T20:36:15.133Z,68.74
2019-03-31T20:39:56.647Z,69.08
2019-03-31T20:43:26.596Z,66.69
2019-03-31T20:46:31.860Z,66.23
2019-03-31T20:49:36.958Z,66.83
2019-03-31T20:52:43.175Z,67.81
2019-03-31T20:55:48.420Z,68.23
2019-03-31T20:58:53.624Z,67.03
2019-03-31T21:01:58.876Z,67.88
2019-03-31T21:05:04.156Z,67.76
2019-03-31T21:08:09.299Z,67.95
2019-03-31T21:11:14.512Z,67.65
2019-03-31T21:14:19.715Z,67.98
2019-03-31T21:17:24.919Z,68.25
2019-03-31T21:20:30.118Z,69.40
2019-03-31T21:23:35.351Z,69.01
2019-03-31T21:26:41.620Z,68.82
2019-03-31T21:29:46.874Z,70.16
2019-03-31T21:32:51.994Z,69.24
2019-03-31T21:35:57.116Z,69.44
2019-03-31T21:39:02.293Z,70.79
2019-03-31T21:42:09.372Z,71.81
2019-03-31T21:45:15.603Z,72.57
2019-03-31T21:48:20.786Z,73.68
2019-03-31T21:51:25.948Z,73.29
2019-03-31T21:54:31.088Z,74.12
2019-03-31T21:57:36.387Z,74.01
2019-03-31T22:00:51.694Z,73.83
2019-03-31T22:03:58.199Z,73.72
2019-03-31T22:07:03.481Z,72.39
2019-03-31T22:10:08.983Z,73.40
2019-03-31T22:13:14.131Z,74.23
2019-03-31T22:16:19.440Z,74.42
2019-03-31T22:19:24.663Z,74.23
2019-03-31T22:22:29.826Z,73.35
2019-03-31T22:25:34.987Z,72.65
2019-03-31T22:28:40.181Z,72.03
2019-03-31T22:31:45.344Z,72.49
2019-03-31T22:34:50.572Z,72.69
2019-03-31T22:37:55.834Z,72.67
2019-03-31T22:41:01.023Z,73.75
2019-03-31T22:44:06.327Z,74.54
2019-03-31T22:47:11.578Z,75.37
2019-03-31T22:50:17.873Z,74.28
2019-03-31T22:53:23.157Z,72.86
2019-03-31T22:56:28.265Z,73.17
2019-03-31T22:59:33.399Z,73.88
2019-03-31T23:02:38.683Z,74.76
2019-03-31T23:05:43.883Z,75.75
2019-03-31T23:08:49.021Z,75.81
2019-03-31T23:11:54.129Z,76.42
2019-03-31T23:14:59.545Z,76.31
2019-03-31T23:18:04.822Z,76.32
2019-03-31T23:21:09.910Z,76.55
2019-03-31T23:24:15.065Z,76.30
2019-03-31T23:27:20.211Z,77.12
2019-03-31T23:30:25.376Z,77.81
2019-03-31T23:33:30.636Z,78.12
2019-03-31T23:36:35.929Z,78.68
2019-03-31T23:39:41.113Z,79.85
2019-03-31T23:42:46.217Z,80.87
2019-03-31T23:45:51.366Z,80.50
2019-03-31T23:48:56.640Z,80.81
2019-03-31T23:52:01.872Z,81.50
2019-03-31T23:55:07.083Z,82.32
2019-03-31T23:58:12.200Z,82.83
